createdAt,value
2023-05-08T00:00:05.019Z,3.60
2023-05-08T00:02:32.103Z,3.40
2023-05-08T00:04:59.156Z,3.42
2023-05-08T00:07:26.080Z,3.95
2023-05-08T00:09:52.875Z,3.60
2023-05-08T00:12:19.688Z,3.22
2023-05-08T00:14:46.450Z,3.97
2023-05-08T00:17:13.555Z,3.72
2023-05-08T00:19:40.341Z,3.78
2023-05-08T00:22:07.086Z,3.78
2023-05-08T00:24:33.852Z,3.30
2023-05-08T00:27:00.573Z,3.88
2023-05-08T00:29:27.323Z,3.80
2023-05-08T00:31:54.260Z,4.47
2023-05-08T00:34:21.029Z,3.83
2023-05-08T00:36:48.015Z,4.00
2023-05-08T00:39:14.781Z,4.70
2023-05-08T00:41:41.530Z,4.50
2023-05-08T00:44:08.472Z,3.78
2023-05-08T00:46:36.711Z,4.13
2023-05-08T00:49:05.870Z,4.03
2023-05-08T00:51:33.860Z,4.57
2023-05-08T00:54:00.926Z,4.13
2023-05-08T00:56:29.457Z,4.70
2023-05-08T00:58:56.840Z,4.72
2023-05-08T01:01:24.454Z,4.38
2023-05-08T01:03:51.598Z,4.47
2023-05-08T01:06:18.499Z,5.55
2023-05-08T01:08:46.077Z,4.85
2023-05-08T01:11:31.464Z,5.63
2023-05-08T01:14:06.490Z,4.97
2023-05-08T01:16:45.549Z,4.85
2023-05-08T01:19:43.313Z,5.25
2023-05-08T01:22:37.401Z,4.95
2023-05-08T01:25:10.058Z,5.03
2023-05-08T01:28:01.051Z,4.57
2023-05-08T01:30:55.629Z,4.57
2023-05-08T01:33:33.642Z,5.22
2023-05-08T01:36:18.796Z,4.88
2023-05-08T01:39:01.129Z,4.60
2023-05-08T01:41:30.318Z,4.88
2023-05-08T01:44:05.872Z,5.28
2023-05-08T01:46:34.389Z,4.90
2023-05-08T01:49:09.423Z,5.30
2023-05-08T01:51:47.200Z,5.28
2023-05-08T01:54:24.368Z,5.53
2023-05-08T01:56:55.100Z,5.57
2023-05-08T01:59:23.752Z,4.60
2023-05-08T02:01:54.508Z,5.68
2023-05-08T02:04:23.062Z,4.93
2023-05-08T02:06:51.866Z,6.38
2023-05-08T02:09:21.825Z,6.32
2023-05-08T02:11:50.909Z,5.75
2023-05-08T02:14:20.302Z,5.47
2023-05-08T02:16:48.723Z,6.10
2023-05-08T02:19:17.150Z,5.63
2023-05-08T02:21:46.620Z,6.55
2023-05-08T02:24:15.054Z,6.25
2023-05-08T02:26:42.948Z,5.75
2023-05-08T02:29:10.301Z,6.07
2023-05-08T02:31:38.822Z,6.68
2023-05-08T02:34:09.101Z,6.50
2023-05-08T02:36:37.773Z,7.68
2023-05-08T02:39:07.313Z,7.55
2023-05-08T02:41:35.179Z,8.15
2023-05-08T02:44:02.559Z,8.57
2023-05-08T02:46:41.969Z,9.40
2023-05-08T02:49:26.840Z,10.35
2023-05-08T02:52:11.471Z,10.73
2023-05-08T02:54:56.570Z,9.38
2023-05-08T02:57:30.678Z,9.70
2023-05-08T03:00:02.679Z,9.75
2023-05-08T03:02:37.921Z,10.40
2023-05-08T03:05:15.760Z,9.68
2023-05-08T03:07:43.802Z,10.82
2023-05-08T03:10:18.535Z,10.10
2023-05-08T03:12:52.146Z,10.52
2023-05-08T03:15:27.425Z,10.90
2023-05-08T03:17:58.781Z,10.40
2023-05-08T03:20:29.855Z,9.65
2023-05-08T03:22:57.516Z,10.13
2023-05-08T03:25:25.665Z,9.98
2023-05-08T03:27:53.063Z,10.70
2023-05-08T03:30:21.224Z,10.43
2023-05-08T03:32:49.788Z,10.70
2023-05-08T03:35:17.798Z,10.48
2023-05-08T03:37:44.881Z,10.35
2023-05-08T03:40:12.405Z,10.60
2023-05-08T03:42:41.185Z,10.23
2023-05-08T03:45:10.831Z,9.98
2023-05-08T03:47:38.193Z,10.35
2023-05-08T03:50:06.127Z,10.30
2023-05-08T03:52:33.037Z,10.55
2023-05-08T03:55:01.447Z,10.48
2023-05-08T03:57:39.490Z,11.77
2023-05-08T04:00:10.126Z,10.30
2023-05-08T04:02:52.369Z,10.15
2023-05-08T04:08:17.507Z,10.60
2023-05-08T04:10:53.705Z,10.40
2023-05-08T04:13:31.441Z,9.98
2023-05-08T04:16:12.218Z,10.63
2023-05-08T04:18:46.935Z,9.88
2023-05-08T04:21:18.814Z,9.32
2023-05-08T04:26:16.783Z,9.25
2023-05-08T04:28:44.240Z,8.95
2023-05-08T04:31:11.356Z,9.15
2023-05-08T04:33:39.130Z,9.43
2023-05-08T04:36:10.904Z,9.50
2023-05-08T04:38:37.926Z,9.75
2023-05-08T04:41:04.935Z,9.38
2023-05-08T04:43:31.840Z,8.88
2023-05-08T04:45:58.688Z,9.82
2023-05-08T04:48:25.985Z,9.68
2023-05-08T04:50:52.719Z,8.85
2023-05-08T04:53:19.746Z,8.77
2023-05-08T04:55:46.515Z,9.02
2023-05-08T04:58:13.337Z,9.15
2023-05-08T05:00:40.090Z,9.60
2023-05-08T05:03:06.963Z,9.10
2023-05-08T05:05:37.026Z,9.13
2023-05-08T05:08:05.627Z,9.82
2023-05-08T05:10:32.458Z,9.13
2023-05-08T05:12:59.196Z,10.23
2023-05-08T05:15:26.182Z,10.90
2023-05-08T05:17:53.214Z,10.23
2023-05-08T05:20:20.009Z,8.85
2023-05-08T05:22:46.822Z,8.75
2023-05-08T05:25:13.887Z,9.45
2023-05-08T05:27:40.775Z,8.98
2023-05-08T05:30:08.126Z,9.43
2023-05-08T05:32:35.089Z,10.43
2023-05-08T05:35:01.948Z,10.18
2023-05-08T05:37:28.822Z,8.88
2023-05-08T05:39:55.737Z,9.68
2023-05-08T05:42:22.504Z,9.20
2023-05-08T05:44:49.482Z,9.35
2023-05-08T05:47:16.530Z,9.52
2023-05-08T05:49:46.937Z,9.18
2023-05-08T05:52:14.770Z,9.77
2023-05-08T05:54:41.978Z,9.52
2023-05-08T05:57:08.818Z,10.07
2023-05-08T05:59:35.727Z,10.23
2023-05-08T06:02:02.636Z,10.05
2023-05-08T06:04:29.685Z,9.52
2023-05-08T06:06:56.801Z,9.48
2023-05-08T06:09:23.626Z,9.20
2023-05-08T06:11:50.506Z,9.90
2023-05-08T06:14:17.329Z,9.70
2023-05-08T06:16:45.122Z,9.35
2023-05-08T06:19:12.216Z,9.30
2023-05-08T06:21:39.933Z,9.18
2023-05-08T06:24:07.916Z,9.25
2023-05-08T06:26:34.780Z,9.50
2023-05-08T06:29:01.535Z,9.57
2023-05-08T06:31:28.546Z,9.75
2023-05-08T06:33:55.475Z,9.10
2023-05-08T06:36:22.276Z,9.15
2023-05-08T06:38:49.182Z,9.85
2023-05-08T06:41:16.177Z,8.57
2023-05-08T06:43:42.895Z,10.02
2023-05-08T06:46:10.002Z,9.68
2023-05-08T06:51:23.224Z,10.45
2023-05-08T06:53:50.084Z,9.68
2023-05-08T06:56:16.909Z,10.88
2023-05-08T06:58:48.371Z,9.45
2023-05-08T07:01:24.121Z,10.93
2023-05-08T07:03:51.016Z,11.05
2023-05-08T07:06:18.162Z,10.63
2023-05-08T07:08:44.982Z,10.13
2023-05-08T07:11:11.850Z,9.98
2023-05-08T07:13:38.720Z,10.30
2023-05-08T07:16:12.239Z,9.77
2023-05-08T07:18:39.193Z,10.13
2023-05-08T07:21:06.155Z,10.32
2023-05-08T07:23:32.975Z,10.20
2023-05-08T07:25:59.825Z,9.80
2023-05-08T07:28:26.777Z,10.95
2023-05-08T07:30:53.738Z,10.45
2023-05-08T07:33:20.868Z,10.70
2023-05-08T07:35:47.771Z,10.25
2023-05-08T07:38:14.740Z,10.60
2023-05-08T07:40:41.676Z,9.52
2023-05-08T07:43:08.457Z,10.07
2023-05-08T07:45:36.060Z,10.23
2023-05-08T07:48:02.904Z,9.85
2023-05-08T07:50:29.930Z,9.80
2023-05-08T07:52:59.382Z,10.15
2023-05-08T07:55:26.383Z,10.32
2023-05-08T07:57:53.167Z,10.00
2023-05-08T08:00:20.730Z,9.82
2023-05-08T08:02:47.654Z,8.68
2023-05-08T08:05:14.820Z,10.02
2023-05-08T08:07:41.866Z,9.90
2023-05-08T08:10:09.360Z,8.85
2023-05-08T08:12:36.304Z,9.85
2023-05-08T08:15:03.339Z,9.80
2023-05-08T08:17:30.149Z,10.00
2023-05-08T08:19:57.270Z,8.80
2023-05-08T08:22:24.939Z,9.02
2023-05-08T08:24:54.174Z,9.50
2023-05-08T08:27:22.116Z,9.43
2023-05-08T08:29:48.877Z,9.82
2023-05-08T08:32:15.942Z,8.60
2023-05-08T08:34:42.902Z,9.38
2023-05-08T08:37:09.722Z,9.48
2023-05-08T08:39:36.735Z,9.77
2023-05-08T08:42:04.271Z,8.95
2023-05-08T08:44:31.121Z,9.65
2023-05-08T08:46:58.766Z,9.27
2023-05-08T08:49:31.329Z,8.35
2023-05-08T08:52:15.851Z,9.10
2023-05-08T08:54:46.861Z,9.80
2023-05-08T08:57:14.760Z,9.83
2023-05-08T08:59:44.361Z,9.55
2023-05-08T09:02:14.822Z,9.18
2023-05-08T09:04:41.694Z,9.15
2023-05-08T09:07:10.521Z,10.15
2023-05-08T09:09:41.218Z,8.88
2023-05-08T09:12:08.489Z,9.05
2023-05-08T09:14:35.671Z,10.55
2023-05-08T09:17:02.910Z,9.98
2023-05-08T09:19:30.799Z,9.43
2023-05-08T09:22:01.622Z,10.05
2023-05-08T09:24:54.730Z,9.23
2023-05-08T09:27:23.090Z,8.88
2023-05-08T09:30:04.546Z,10.15
2023-05-08T09:32:32.643Z,10.23
2023-05-08T09:35:00.726Z,9.88
2023-05-08T09:37:31.229Z,9.63
2023-05-08T09:40:21.981Z,10.18
2023-05-08T09:42:50.317Z,9.35
2023-05-08T09:45:28.008Z,8.80
2023-05-08T09:47:55.073Z,10.32
2023-05-08T09:50:21.980Z,10.10
2023-05-08T09:52:49.578Z,9.07
2023-05-08T09:55:16.756Z,9.35
2023-05-08T09:58:00.012Z,9.65
2023-05-08T10:00:29.441Z,9.65
2023-05-08T10:03:04.263Z,9.40
2023-05-08T10:05:36.610Z,9.40
2023-05-08T10:08:21.477Z,8.93
2023-05-08T10:10:48.426Z,9.40
2023-05-08T10:13:15.475Z,9.43
2023-05-08T10:15:43.940Z,10.30
2023-05-08T10:18:13.202Z,9.52
2023-05-08T10:20:47.577Z,9.55
2023-05-08T10:23:19.318Z,10.02
2023-05-08T10:28:22.836Z,9.98
2023-05-08T10:30:50.744Z,10.82
2023-05-08T10:33:21.532Z,10.38
2023-05-08T10:35:48.870Z,11.05
2023-05-08T10:38:17.049Z,10.57
2023-05-08T10:40:45.217Z,10.48
2023-05-08T10:43:12.985Z,11.30
2023-05-08T10:45:40.379Z,11.50
2023-05-08T10:48:35.467Z,10.90
2023-05-08T10:51:23.720Z,11.50
2023-05-08T10:53:55.778Z,10.98
2023-05-08T10:56:27.345Z,12.13
2023-05-08T10:58:58.401Z,10.95
2023-05-08T11:01:26.342Z,12.05
2023-05-08T11:03:55.216Z,12.00
2023-05-08T11:06:45.929Z,12.25
2023-05-08T11:09:23.461Z,12.18
2023-05-08T11:12:16.453Z,13.65
2023-05-08T11:14:45.649Z,12.35
2023-05-08T11:17:22.685Z,14.20
2023-05-08T11:19:57.486Z,12.88
2023-05-08T11:22:29.367Z,12.68
2023-05-08T11:25:10.016Z,14.52
2023-05-08T11:27:48.873Z,13.73
2023-05-08T11:30:19.598Z,13.10
2023-05-08T11:33:07.760Z,14.13
2023-05-08T11:35:51.041Z,13.35
2023-05-08T11:39:09.118Z,13.20
2023-05-08T11:41:38.988Z,12.80
2023-05-08T11:44:29.317Z,14.13
2023-05-08T11:46:58.836Z,13.35
2023-05-08T11:49:36.498Z,13.60
2023-05-08T11:52:07.072Z,12.95
2023-05-08T11:54:37.073Z,12.98
2023-05-08T11:57:05.446Z,13.50
2023-05-08T11:59:37.267Z,13.55
2023-05-08T12:02:09.123Z,13.25
2023-05-08T12:04:45.943Z,13.38
2023-05-08T12:07:13.487Z,13.88
2023-05-08T12:09:40.890Z,13.85
2023-05-08T12:12:07.788Z,11.98
2023-05-08T12:14:35.080Z,12.27
2023-05-08T12:17:02.870Z,13.10
2023-05-08T12:19:29.749Z,11.68
2023-05-08T12:21:57.916Z,12.32
2023-05-08T12:24:26.289Z,12.60
2023-05-08T12:26:58.664Z,11.07
2023-05-08T12:29:28.652Z,11.93
2023-05-08T12:31:56.051Z,11.93
2023-05-08T12:34:23.113Z,11.40
2023-05-08T12:37:01.048Z,11.70
2023-05-08T12:39:28.009Z,10.07
2023-05-08T12:41:56.158Z,10.55
2023-05-08T12:44:24.656Z,9.88
2023-05-08T12:46:52.808Z,8.75
2023-05-08T12:49:32.774Z,8.68
2023-05-08T12:52:06.922Z,8.32
2023-05-08T12:54:36.092Z,9.68
2023-05-08T12:57:11.693Z,9.68
2023-05-08T12:59:38.616Z,11.63
2023-05-08T13:02:12.029Z,12.02
2023-05-08T13:04:39.129Z,10.63
2023-05-08T13:07:06.118Z,12.05
2023-05-08T13:09:32.879Z,11.13
2023-05-08T13:11:59.644Z,11.93
2023-05-08T13:14:26.420Z,11.18
2023-05-08T13:16:53.645Z,9.48
2023-05-08T13:19:20.611Z,9.88
2023-05-08T13:21:48.003Z,10.05
2023-05-08T13:24:15.331Z,9.30
2023-05-08T13:26:42.276Z,7.75
2023-05-08T13:29:09.025Z,8.63
2023-05-08T13:31:35.838Z,9.25
2023-05-08T13:34:02.664Z,9.90
2023-05-08T13:36:29.452Z,8.75
2023-05-08T13:38:57.563Z,7.75
2023-05-08T13:41:24.433Z,8.27
2023-05-08T13:43:51.289Z,7.93
2023-05-08T13:46:18.175Z,8.18
2023-05-08T13:48:44.932Z,7.93
2023-05-08T13:51:11.670Z,8.98
2023-05-08T13:53:38.422Z,7.70
2023-05-08T13:56:05.416Z,7.63
2023-05-08T13:58:32.255Z,8.95
2023-05-08T14:01:01.550Z,9.18
2023-05-08T14:03:32.092Z,9.48
2023-05-08T14:05:58.879Z,10.95
2023-05-08T14:08:25.770Z,9.25
2023-05-08T14:10:52.678Z,9.77
2023-05-08T14:13:19.432Z,10.70
2023-05-08T14:15:46.382Z,10.95
2023-05-08T14:18:13.186Z,10.90
2023-05-08T14:20:40.026Z,11.35
2023-05-08T14:23:06.935Z,11.27
2023-05-08T14:25:34.206Z,11.35
2023-05-08T14:28:00.997Z,12.77
2023-05-08T14:30:27.835Z,12.00
2023-05-08T14:32:54.664Z,12.20
2023-05-08T14:35:21.484Z,13.25
2023-05-08T14:37:48.294Z,12.98
2023-05-08T14:40:15.076Z,11.73
2023-05-08T14:42:41.926Z,13.43
2023-05-08T14:45:09.309Z,12.48
2023-05-08T14:47:36.161Z,12.68
2023-05-08T14:50:03.073Z,12.00
2023-05-08T14:52:29.912Z,12.45
2023-05-08T14:54:58.695Z,12.75
2023-05-08T14:57:25.949Z,12.20
2023-05-08T14:59:55.334Z,12.43
2023-05-08T15:02:25.659Z,10.95
2023-05-08T15:04:52.465Z,12.48
2023-05-08T15:07:19.235Z,11.98
2023-05-08T15:09:46.076Z,12.05
2023-05-08T15:12:12.841Z,12.35
2023-05-08T15:14:39.575Z,12.50
2023-05-08T15:17:06.380Z,12.38
2023-05-08T15:19:33.108Z,14.27
2023-05-08T15:21:59.936Z,13.25
2023-05-08T15:24:26.633Z,12.73
2023-05-08T15:26:53.418Z,12.45
2023-05-08T15:29:20.223Z,13.02
2023-05-08T15:31:47.135Z,12.48
2023-05-08T15:34:14.095Z,12.18
2023-05-08T15:36:40.911Z,12.40
2023-05-08T15:39:07.732Z,12.02
2023-05-08T15:41:36.443Z,13.15
2023-05-08T15:44:03.317Z,12.82
2023-05-08T15:46:30.173Z,12.07
2023-05-08T15:48:57.169Z,11.27
2023-05-08T15:51:24.316Z,12.60
2023-05-08T15:53:52.323Z,12.32
2023-05-08T15:56:24.538Z,12.40
2023-05-08T15:58:51.785Z,13.35
2023-05-08T16:01:19.544Z,11.77
2023-05-08T16:03:46.584Z,12.52
2023-05-08T16:06:13.424Z,12.30
2023-05-08T16:08:40.241Z,13.15
2023-05-08T16:11:07.012Z,12.70
2023-05-08T16:13:33.763Z,11.93
2023-05-08T16:16:04.971Z,12.30
2023-05-08T16:18:32.004Z,11.60
2023-05-08T16:20:58.812Z,11.73
2023-05-08T16:23:25.606Z,12.00
2023-05-08T16:25:52.402Z,12.40
2023-05-08T16:28:19.159Z,12.13
2023-05-08T16:30:45.914Z,11.60
2023-05-08T16:33:12.702Z,11.75
2023-05-08T16:35:40.181Z,12.45
2023-05-08T16:38:07.016Z,10.98
2023-05-08T16:40:33.817Z,11.40
2023-05-08T16:43:00.740Z,10.95
2023-05-08T16:45:27.974Z,11.05
2023-05-08T16:47:54.774Z,11.25
2023-05-08T16:50:21.575Z,10.60
2023-05-08T16:52:48.537Z,10.35
2023-05-08T16:55:15.446Z,11.80
2023-05-08T16:57:42.288Z,11.80
2023-05-08T17:00:09.467Z,11.13
2023-05-08T17:02:36.375Z,10.93
2023-05-08T17:05:03.754Z,10.70
2023-05-08T17:07:30.871Z,11.07
2023-05-08T17:09:58.090Z,11.48
2023-05-08T17:12:25.293Z,11.70
2023-05-08T17:14:52.546Z,11.48
2023-05-08T17:17:19.283Z,11.05
2023-05-08T17:19:46.093Z,11.13
2023-05-08T17:22:13.220Z,11.55
2023-05-08T17:24:40.042Z,11.88
2023-05-08T17:27:07.232Z,11.02
2023-05-08T17:29:34.835Z,11.93
2023-05-08T17:32:01.861Z,11.30
2023-05-08T17:34:28.771Z,11.25
2023-05-08T17:36:55.764Z,11.85
2023-05-08T17:39:22.897Z,11.75
2023-05-08T17:41:52.964Z,11.60
2023-05-08T17:44:19.769Z,11.98
2023-05-08T17:46:46.621Z,11.73
2023-05-08T17:49:14.741Z,12.25
2023-05-08T17:51:42.339Z,12.25
2023-05-08T17:54:09.108Z,11.95
2023-05-08T17:56:35.957Z,11.93
2023-05-08T17:59:02.807Z,11.63
2023-05-08T18:01:29.770Z,12.68
2023-05-08T18:03:56.670Z,11.43
2023-05-08T18:06:23.485Z,12.02
2023-05-08T18:08:50.735Z,12.60
2023-05-08T18:11:22.360Z,12.82
2023-05-08T18:13:49.635Z,11.98
2023-05-08T18:16:18.630Z,11.45
2023-05-08T18:18:45.947Z,12.05
2023-05-08T18:21:13.048Z,12.48
2023-05-08T18:23:40.287Z,13.13
2023-05-08T18:26:07.575Z,13.52
2023-05-08T18:28:36.206Z,11.85
2023-05-08T18:31:03.540Z,13.52
2023-05-08T18:33:30.380Z,12.80
2023-05-08T18:35:57.306Z,12.73
2023-05-08T18:38:24.213Z,13.10
2023-05-08T18:40:51.058Z,13.98
2023-05-08T18:43:17.947Z,13.48
2023-05-08T18:45:44.804Z,13.52
2023-05-08T18:48:11.736Z,13.75
2023-05-08T18:57:00.646Z,15.02
2023-05-08T18:59:28.452Z,15.60
2023-05-08T19:04:39.151Z,17.80
2023-05-08T19:07:12.042Z,18.52
2023-05-08T19:09:41.516Z,19.60
2023-05-08T19:12:09.297Z,20.10
2023-05-08T19:14:58.714Z,20.65
2023-05-08T19:17:34.184Z,21.58
2023-05-08T19:20:01.049Z,21.48
2023-05-08T19:22:29.189Z,21.83
2023-05-08T19:24:56.277Z,20.85
2023-05-08T19:27:23.164Z,18.42
2023-05-08T19:29:50.032Z,19.00
2023-05-08T19:32:16.922Z,18.83
2023-05-08T19:37:11.607Z,18.25
2023-05-08T19:39:38.376Z,18.52
2023-05-08T19:42:05.377Z,17.27
2023-05-08T19:44:32.862Z,17.20
2023-05-08T19:47:01.584Z,16.30
2023-05-08T19:49:30.839Z,15.43
2023-05-08T19:51:57.619Z,15.82
2023-05-08T19:54:27.435Z,14.88
2023-05-08T19:56:54.368Z,15.02
2023-05-08T19:59:21.353Z,15.48
2023-05-08T20:01:50.391Z,15.55
2023-05-08T20:04:17.582Z,15.70
2023-05-08T20:06:44.416Z,15.38
2023-05-08T20:09:11.441Z,14.80
2023-05-08T20:11:38.323Z,15.45
2023-05-08T20:14:05.087Z,16.02
2023-05-08T20:16:31.982Z,15.50
2023-05-08T20:18:59.487Z,16.23
2023-05-08T20:21:26.638Z,14.27
2023-05-08T20:23:53.378Z,15.35
2023-05-08T20:26:20.214Z,15.15
2023-05-08T20:28:46.993Z,15.77
2023-05-08T20:31:13.753Z,14.65
2023-05-08T20:33:43.235Z,16.38
2023-05-08T20:36:10.078Z,15.48
2023-05-08T20:38:36.971Z,15.95
2023-05-08T20:41:04.866Z,16.55
2023-05-08T20:43:34.424Z,15.05
2023-05-08T20:46:01.430Z,15.60
2023-05-08T20:48:28.376Z,14.57
2023-05-08T20:50:55.195Z,14.38
2023-05-08T20:53:22.012Z,15.95
2023-05-08T20:55:48.756Z,15.63
2023-05-08T20:58:15.588Z,16.23
2023-05-08T21:00:42.439Z,15.20
2023-05-08T21:03:09.191Z,15.57
2023-05-08T21:05:35.982Z,16.98
2023-05-08T21:08:04.391Z,17.30
2023-05-08T21:10:31.534Z,15.48
2023-05-08T21:13:01.474Z,18.27
2023-05-08T21:15:28.225Z,16.80
2023-05-08T21:17:56.948Z,17.73
2023-05-08T21:20:24.472Z,15.95
2023-05-08T21:22:51.308Z,17.02
2023-05-08T21:25:18.284Z,17.85
2023-05-08T21:27:45.290Z,17.05
2023-05-08T21:30:15.523Z,18.02
2023-05-08T21:32:46.047Z,17.83
2023-05-08T21:35:13.443Z,19.90
2023-05-08T21:37:40.627Z,17.50
2023-05-08T21:40:08.203Z,17.27
2023-05-08T21:42:35.016Z,18.13
2023-05-08T21:45:01.867Z,17.20
2023-05-08T21:47:28.676Z,17.90
2023-05-08T21:49:55.587Z,18.92
2023-05-08T21:52:23.212Z,19.20
2023-05-08T21:54:50.521Z,19.77
2023-05-08T21:57:17.277Z,19.77
2023-05-08T21:59:44.875Z,18.48
2023-05-08T22:02:12.128Z,19.50
2023-05-08T22:04:39.131Z,19.33
2023-05-08T22:07:06.059Z,17.77
2023-05-08T22:09:32.849Z,17.50
2023-05-08T22:11:59.711Z,19.25
2023-05-08T22:14:27.094Z,20.08
2023-05-08T22:16:53.976Z,18.73
2023-05-08T22:19:20.913Z,19.38
2023-05-08T22:21:47.769Z,19.77
2023-05-08T22:24:15.133Z,18.60
2023-05-08T22:26:41.953Z,18.33
2023-05-08T22:29:08.786Z,19.58
2023-05-08T22:31:35.851Z,19.02
2023-05-08T22:34:02.823Z,17.20
2023-05-08T22:36:29.644Z,18.92
2023-05-08T22:38:56.449Z,20.27
2023-05-08T22:41:23.756Z,21.15
2023-05-08T22:43:50.642Z,19.52
2023-05-08T22:46:18.400Z,20.38
2023-05-08T22:48:45.845Z,19.65
2023-05-08T22:51:13.313Z,20.83
2023-05-08T22:53:40.260Z,20.77
2023-05-08T22:56:07.183Z,19.88
2023-05-08T22:58:33.934Z,20.50
2023-05-08T23:01:00.788Z,20.15
2023-05-08T23:03:27.715Z,20.92
2023-05-08T23:05:54.625Z,19.92
2023-05-08T23:08:22.590Z,19.85
2023-05-08T23:10:49.605Z,19.77
2023-05-08T23:13:16.477Z,19.48
2023-05-08T23:15:43.282Z,19.85
2023-05-08T23:18:10.152Z,21.40
2023-05-08T23:20:37.136Z,19.92
2023-05-08T23:23:04.008Z,20.95
2023-05-08T23:25:30.878Z,20.92
2023-05-08T23:27:57.680Z,20.27
2023-05-08T23:30:24.436Z,19.98
2023-05-08T23:32:51.277Z,20.15
2023-05-08T23:35:18.263Z,21.40
2023-05-08T23:37:45.103Z,19.75
2023-05-08T23:40:12.292Z,20.77
2023-05-08T23:42:39.866Z,20.48
2023-05-08T23:45:07.880Z,21.90
2023-05-08T23:47:34.851Z,21.15
2023-05-08T23:50:01.727Z,20.95
2023-05-08T23:52:28.791Z,21.38
2023-05-08T23:54:55.749Z,21.35
2023-05-08T23:57:23.868Z,19.02
2023-05-08T23:59:50.686Z,21.17
